Estación Meteorológica Peña el Pijo (Robertgarden) [ 04/19/21 03:59:59 CEST ]

Fecha Hora Presion(HPa) Temp (°C) Humedad % Rocio (°C) Viento ( m/s) Direccion Lluvia 1Hora(mm) Lluvia 24H(mm) LLuvia Total(mm)
2021-Mar-31 01:09:34 1014.700 8.4 45 -2.9 - N     89.61
2021-Mar-31 02:09:03 1014.500 8.0 45 -3.3 - N     89.61
2021-Mar-31 03:09:38 1013.900 7.6 49 -2.5 - N     89.61
2021-Mar-31 04:09:52 1012.900 6.9 51 -2.6 - N     89.61
2021-Mar-31 05:09:38 1012.500 5.3 58 -2.3 - N     89.61
2021-Mar-31 06:09:42 1012.400 4.1 64 -2.2 - N     89.61
2021-Mar-31 07:10:14 1012.600 3.1 68 -2.2 - N     89.61
2021-Mar-31 08:09:50 1012.400 2.5 72 -2.0 - N     89.61
2021-Mar-31 09:09:17 1012.500 5.2 68 -0.2 - N     89.61
2021-Mar-31 10:09:17 1012.300 11.4 52 1.9 - N     89.61
2021-Mar-31 11:09:24 1012.000 17.3 37 2.4 - N     89.61
2021-Mar-31 12:09:50 1011.800 20.7 30 2.5 - N     89.61
2021-Mar-31 13:09:41 1011.200 22.2 26 1.6 - N     89.61
2021-Mar-31 14:09:21 1010.500 22.3 25 1.1 - N     89.61
2021-Mar-31 15:09:09 1010.000 23.1 24 1.2 - N     89.61
2021-Mar-31 16:09:43 1009.400 22.6 25 1.4 - N     89.61
2021-Mar-31 17:09:13 1009.300 21.5 27 1.6 - N     89.61
2021-Mar-31 18:09:24 1008.900 20.1 30 2.0 - N     89.61
2021-Mar-31 19:09:44 1008.800 18.0 32 1.0 - N     89.61
2021-Mar-31 20:10:07 1008.800 14.9 38 0.2 - N     89.61
2021-Mar-31 21:09:36 1009.300 13.1 44 1.0 - N     89.61
2021-Mar-31 22:09:18 1009.600 11.8 47 0.8 - N     89.61
2021-Mar-31 23:09:52 1010.000 10.8 48 0.2 - N     89.61

Temperatura Máxima:23°    Temperatura Mínima:
Presión Máxima:1014.700 Hpa    Presión Mínima:1008.800 Hpa


Volver